Terminal Aerodrome Forecast
Issued by NWS

Home | Current Version | Previous Version | Graphics & Text | Print | Product List | Glossary On
Versions: 1 2 3 4 5 6 7 8 9 10 11 12 13 14 15 16 17 18 19 20 21 22
000
FTUS43 KMPX 281736
TAFAXN
TAF
KAXN 281736Z 2818/2918 25014G21KT P6SM FEW020 SCT040
      TEMPO 2818/2821 P6SM BKN040
     FM290300 26010G15KT P6SM SCT250
     FM291500 26018G25KT P6SM SKC=

USA.gov is the U.S. government's official web portal to all federal, state and local government web resources and services.